createdAt,value
2019-03-24T00:02:25.981Z,57.38
2019-03-24T00:04:59.516Z,57.54
2019-03-24T00:07:32.980Z,57.75
2019-03-24T00:10:07.996Z,57.87
2019-03-24T00:12:41.445Z,57.82
2019-03-24T00:15:25.452Z,57.65
2019-03-24T00:17:51.038Z,57.65
2019-03-24T00:20:24.471Z,57.57
2019-03-24T00:22:57.894Z,57.57
2019-03-24T00:25:31.433Z,57.56
2019-03-24T00:28:05.955Z,57.51
2019-03-24T00:30:39.539Z,57.55
2019-03-24T00:33:13.243Z,57.55
2019-03-24T00:35:46.932Z,57.69
2019-03-24T00:38:20.353Z,57.84
2019-03-24T00:40:53.976Z,57.72
2019-03-24T00:43:27.407Z,57.68
2019-03-24T00:46:01.236Z,57.55
2019-03-24T00:48:34.744Z,57.58
2019-03-24T00:51:08.360Z,57.58
2019-03-24T00:53:42.047Z,57.68
2019-03-24T00:56:15.639Z,57.78
2019-03-24T00:58:49.236Z,57.75
2019-03-24T01:01:22.608Z,57.71
2019-03-24T01:03:56.100Z,57.66
2019-03-24T01:06:29.710Z,57.58
2019-03-24T01:09:03.182Z,57.56
2019-03-24T01:11:36.821Z,57.53
2019-03-24T01:14:10.296Z,57.40
2019-03-24T01:16:43.957Z,57.35
2019-03-24T01:19:17.598Z,57.42
2019-03-24T01:21:51.095Z,57.44
2019-03-24T01:24:24.782Z,57.45
2019-03-24T01:26:58.300Z,57.28
2019-03-24T01:29:31.924Z,57.20
2019-03-24T01:32:05.431Z,57.19
2019-03-24T01:34:39.035Z,57.38
2019-03-24T01:37:12.561Z,57.46
2019-03-24T01:39:46.120Z,57.45
2019-03-24T01:42:19.706Z,57.50
2019-03-24T01:44:53.177Z,57.57
2019-03-24T01:47:26.653Z,57.61
2019-03-24T01:50:00.318Z,57.61
2019-03-24T01:52:33.780Z,57.71
2019-03-24T01:55:08.138Z,57.81
2019-03-24T01:57:41.684Z,57.84
2019-03-24T02:00:15.349Z,57.70
2019-03-24T02:02:48.789Z,57.64
2019-03-24T02:05:22.243Z,57.69
2019-03-24T02:07:55.652Z,57.59
2019-03-24T02:10:29.275Z,57.69
2019-03-24T02:13:02.874Z,57.63
2019-03-24T02:15:36.514Z,57.66
2019-03-24T02:18:10.034Z,57.70
2019-03-24T02:20:43.567Z,57.64
2019-03-24T02:23:17.070Z,57.70
2019-03-24T02:25:50.524Z,57.77
2019-03-24T02:28:24.022Z,57.75
2019-03-24T02:30:57.512Z,57.79
2019-03-24T02:33:30.994Z,57.84
2019-03-24T02:36:04.657Z,57.96
2019-03-24T02:38:38.155Z,58.04
2019-03-24T02:41:11.730Z,58.09
2019-03-24T02:43:45.287Z,58.16
2019-03-24T02:46:24.467Z,58.15
2019-03-24T02:48:54.239Z,58.11
2019-03-24T02:51:27.746Z,58.06
2019-03-24T02:54:01.230Z,58.00
2019-03-24T02:56:34.759Z,57.97
2019-03-24T02:59:08.159Z,58.03
2019-03-24T03:01:41.689Z,58.07
2019-03-24T03:04:15.217Z,58.08
2019-03-24T03:06:48.848Z,58.07
2019-03-24T03:09:22.280Z,58.04
2019-03-24T03:11:55.856Z,57.90
2019-03-24T03:14:29.332Z,57.72
2019-03-24T03:17:02.895Z,57.69
2019-03-24T03:19:36.307Z,57.70
2019-03-24T03:22:09.843Z,57.61
2019-03-24T03:24:43.428Z,57.62
2019-03-24T03:27:16.897Z,57.64
2019-03-24T03:29:50.610Z,57.64
2019-03-24T03:32:24.121Z,57.53
2019-03-24T03:34:57.820Z,57.58
2019-03-24T03:37:31.276Z,57.70
2019-03-24T03:40:06.731Z,57.69
2019-03-24T03:42:40.257Z,57.61
2019-03-24T03:45:16.843Z,57.50
2019-03-24T03:47:50.286Z,57.45
2019-03-24T03:50:23.702Z,57.39
2019-03-24T03:52:57.289Z,57.39
2019-03-24T03:55:30.715Z,57.50
2019-03-24T03:58:04.211Z,57.59
2019-03-24T04:00:37.791Z,57.57
2019-03-24T04:03:11.304Z,57.59
2019-03-24T04:05:44.729Z,57.58
2019-03-24T04:08:18.118Z,57.71
2019-03-24T04:10:51.528Z,57.74
2019-03-24T04:13:24.987Z,57.76
2019-03-24T04:15:58.390Z,57.84
2019-03-24T04:18:31.753Z,57.82
2019-03-24T04:21:05.329Z,57.69
2019-03-24T04:23:38.744Z,57.67
2019-03-24T04:26:12.189Z,57.79
2019-03-24T04:28:45.599Z,57.80
2019-03-24T04:31:19.008Z,57.70
2019-03-24T04:33:52.365Z,57.63
2019-03-24T04:36:25.767Z,57.60
2019-03-24T04:38:59.123Z,57.66
2019-03-24T04:41:32.489Z,57.72
2019-03-24T04:44:05.940Z,57.77
2019-03-24T04:46:39.277Z,57.71
2019-03-24T04:49:12.628Z,57.67
2019-03-24T04:51:46.005Z,57.73
2019-03-24T04:54:19.372Z,57.71
2019-03-24T04:56:52.882Z,57.73
2019-03-24T04:59:26.281Z,57.79
2019-03-24T05:01:59.755Z,57.81
2019-03-24T05:04:33.110Z,57.89
2019-03-24T05:07:06.557Z,57.91
2019-03-24T05:09:40.055Z,57.96
2019-03-24T05:12:13.615Z,57.90
2019-03-24T05:14:47.042Z,57.91
2019-03-24T05:17:26.927Z,57.94
2019-03-24T05:19:55.638Z,57.77
2019-03-24T05:22:28.999Z,57.81
2019-03-24T05:25:02.326Z,57.81
2019-03-24T05:27:35.769Z,57.74
2019-03-24T05:30:09.181Z,57.75
2019-03-24T05:32:42.627Z,57.80
2019-03-24T05:35:16.217Z,57.81
2019-03-24T05:37:49.598Z,57.82
2019-03-24T05:40:23.000Z,57.85
2019-03-24T05:42:56.551Z,57.85
2019-03-24T05:45:29.890Z,57.89
2019-03-24T05:48:03.347Z,57.89
2019-03-24T05:50:36.862Z,57.78
2019-03-24T05:53:10.514Z,57.69
2019-03-24T05:55:44.069Z,57.76
2019-03-24T05:58:17.468Z,57.85
2019-03-24T06:00:50.840Z,57.80
2019-03-24T06:03:24.207Z,57.74
2019-03-24T06:05:57.549Z,57.66
2019-03-24T06:08:31.666Z,57.53
2019-03-24T06:11:05.464Z,57.51
2019-03-24T06:13:38.967Z,57.40
2019-03-24T06:16:12.396Z,57.37
2019-03-24T06:18:45.841Z,57.36
2019-03-24T06:21:20.671Z,57.33
2019-03-24T06:23:54.189Z,57.31
2019-03-24T06:26:27.562Z,57.38
2019-03-24T06:29:01.092Z,57.47
2019-03-24T06:31:34.589Z,57.43
2019-03-24T06:34:08.031Z,57.39
2019-03-24T06:36:41.475Z,57.38
2019-03-24T06:39:14.865Z,57.34
2019-03-24T06:41:48.204Z,57.36
2019-03-24T06:44:21.746Z,57.35
2019-03-24T06:46:55.211Z,57.13
2019-03-24T06:49:28.666Z,56.99
2019-03-24T06:52:02.161Z,56.82
2019-03-24T06:54:35.582Z,56.92
2019-03-24T06:57:09.146Z,56.90
2019-03-24T06:59:42.585Z,56.77
2019-03-24T07:02:16.243Z,56.67
2019-03-24T07:04:49.641Z,56.75
2019-03-24T07:07:23.218Z,56.94
2019-03-24T07:09:56.702Z,57.00
2019-03-24T07:12:30.132Z,56.69
2019-03-24T07:15:04.576Z,56.36
2019-03-24T07:17:37.999Z,55.90
2019-03-24T07:20:12.032Z,55.21
2019-03-24T07:22:45.502Z,54.14
2019-03-24T07:25:18.915Z,52.16
2019-03-24T07:27:52.384Z,49.21
2019-03-24T07:30:25.914Z,48.18
2019-03-24T07:32:59.448Z,48.79
2019-03-24T07:35:33.087Z,49.81
2019-03-24T07:38:06.589Z,50.46
2019-03-24T07:40:39.999Z,51.19
2019-03-24T07:43:13.483Z,49.81
2019-03-24T07:45:47.004Z,49.84
2019-03-24T07:48:20.415Z,48.24
2019-03-24T07:50:54.027Z,48.39
2019-03-24T07:53:27.387Z,48.39
2019-03-24T07:56:00.993Z,48.26
2019-03-24T07:58:34.339Z,49.08
2019-03-24T08:01:07.882Z,49.59
2019-03-24T08:03:41.341Z,49.83
2019-03-24T08:06:14.814Z,49.87
2019-03-24T08:08:48.349Z,49.56
2019-03-24T08:11:21.964Z,49.08
2019-03-24T08:13:55.482Z,50.26
2019-03-24T08:16:29.114Z,50.47
2019-03-24T08:19:02.457Z,48.09
2019-03-24T08:21:35.830Z,48.00
2019-03-24T08:24:09.376Z,46.75
2019-03-24T08:26:42.977Z,47.38
2019-03-24T08:29:16.325Z,47.95
2019-03-24T08:31:49.954Z,47.44
2019-03-24T08:34:23.365Z,47.52
2019-03-24T08:36:56.852Z,46.96
2019-03-24T08:39:30.266Z,47.58
2019-03-24T08:42:03.813Z,47.17
2019-03-24T08:44:37.284Z,45.93
2019-03-24T08:47:10.809Z,46.04
2019-03-24T08:49:44.311Z,45.60
2019-03-24T08:52:17.753Z,46.36
2019-03-24T08:54:51.163Z,46.84
2019-03-24T08:57:24.727Z,42.31
2019-03-24T08:59:58.176Z,44.94
2019-03-24T09:02:31.617Z,44.08
2019-03-24T09:05:06.781Z,41.47
2019-03-24T09:07:40.163Z,43.04
2019-03-24T09:10:13.573Z,41.46
2019-03-24T09:12:47.228Z,40.62
2019-03-24T09:15:20.556Z,39.25
2019-03-24T09:17:53.990Z,39.91
2019-03-24T09:20:27.972Z,39.33
2019-03-24T09:23:01.605Z,38.89
2019-03-24T09:25:35.677Z,35.85
2019-03-24T09:28:09.399Z,33.34
2019-03-24T09:30:43.704Z,29.67
2019-03-24T09:33:18.916Z,26.19
2019-03-24T09:35:52.452Z,28.77
2019-03-24T09:38:26.421Z,29.15
2019-03-24T09:40:59.778Z,27.13
2019-03-24T09:43:33.820Z,29.98
2019-03-24T09:46:09.426Z,28.91
2019-03-24T09:48:42.940Z,29.78
2019-03-24T09:51:16.329Z,29.80
2019-03-24T09:53:49.939Z,28.72
2019-03-24T09:56:23.501Z,26.70
2019-03-24T09:58:58.199Z,27.17
2019-03-24T10:01:31.639Z,27.19
2019-03-24T10:04:08.532Z,28.05
2019-03-24T10:06:48.132Z,28.97
2019-03-24T10:09:21.610Z,30.75
2019-03-24T10:11:56.656Z,32.25
2019-03-24T10:14:30.842Z,32.28
2019-03-24T10:17:04.422Z,31.07
2019-03-24T10:19:37.817Z,30.44
2019-03-24T10:22:12.686Z,29.98
2019-03-24T10:24:46.175Z,30.07
2019-03-24T10:27:19.874Z,30.84
2019-03-24T10:29:53.347Z,30.23
2019-03-24T10:32:26.973Z,30.18
2019-03-24T10:35:00.690Z,31.27
2019-03-24T10:37:34.301Z,31.88
2019-03-24T10:40:08.108Z,32.57
2019-03-24T10:42:41.484Z,32.84
2019-03-24T10:45:15.198Z,31.01
2019-03-24T10:47:48.630Z,32.29
2019-03-24T10:50:22.120Z,31.67
2019-03-24T10:52:55.597Z,30.70
2019-03-24T10:55:29.082Z,31.54
2019-03-24T10:58:02.553Z,31.40
2019-03-24T11:00:42.913Z,31.01
2019-03-24T11:03:16.303Z,32.08
2019-03-24T11:05:49.723Z,31.77
2019-03-24T11:08:23.257Z,31.65
2019-03-24T11:10:56.683Z,31.42
2019-03-24T11:13:30.092Z,32.06
2019-03-24T11:16:03.562Z,31.78
2019-03-24T11:18:36.949Z,31.76
2019-03-24T11:21:10.452Z,33.27
2019-03-24T11:23:44.057Z,33.39
2019-03-24T11:26:17.388Z,32.93
2019-03-24T11:28:50.796Z,32.30
2019-03-24T11:31:24.284Z,32.36
2019-03-24T11:33:57.745Z,31.77
2019-03-24T11:36:31.191Z,32.27
2019-03-24T11:39:06.952Z,32.55
2019-03-24T11:41:40.365Z,32.59
2019-03-24T11:44:13.926Z,32.40
2019-03-24T11:46:47.344Z,33.70
2019-03-24T11:49:20.840Z,34.23
2019-03-24T11:51:54.423Z,34.25
2019-03-24T11:54:27.881Z,33.38
2019-03-24T11:57:01.283Z,33.42
2019-03-24T11:59:34.788Z,32.80
2019-03-24T12:02:08.203Z,32.33
2019-03-24T12:04:41.607Z,33.83
2019-03-24T12:07:14.970Z,34.02
2019-03-24T12:09:48.369Z,34.82
2019-03-24T12:12:21.826Z,34.56
2019-03-24T12:14:55.263Z,35.62
2019-03-24T12:17:28.703Z,35.23
2019-03-24T12:20:02.209Z,35.69
2019-03-24T12:22:35.661Z,33.39
2019-03-24T12:25:09.524Z,33.67
2019-03-24T12:27:43.004Z,33.59
2019-03-24T12:30:16.430Z,33.36
2019-03-24T12:32:49.885Z,33.37
2019-03-24T12:35:23.386Z,33.58
2019-03-24T12:37:56.752Z,33.88
2019-03-24T12:40:30.241Z,32.20
2019-03-24T12:43:03.704Z,32.09
2019-03-24T12:45:37.038Z,30.65
2019-03-24T12:48:10.680Z,28.69
2019-03-24T12:50:44.140Z,30.32
2019-03-24T12:53:17.622Z,29.76
2019-03-24T12:55:51.279Z,29.40
2019-03-24T12:58:24.782Z,29.20
2019-03-24T13:00:58.196Z,29.59
2019-03-24T13:03:31.652Z,29.64
2019-03-24T13:06:05.526Z,29.02
2019-03-24T13:08:38.963Z,27.73
2019-03-24T13:11:12.374Z,26.95
2019-03-24T13:13:45.852Z,25.04
2019-03-24T13:16:19.251Z,24.60
2019-03-24T13:18:52.695Z,22.70
2019-03-24T13:21:26.164Z,22.97
2019-03-24T13:23:59.701Z,20.37
2019-03-24T13:26:33.059Z,23.56
2019-03-24T13:29:06.647Z,25.79
2019-03-24T13:31:40.033Z,26.45
2019-03-24T13:34:13.426Z,27.01
2019-03-24T13:36:46.871Z,27.07
2019-03-24T13:39:20.362Z,27.24
2019-03-24T13:41:53.717Z,28.02
2019-03-24T13:44:27.150Z,28.87
2019-03-24T13:47:00.628Z,28.53
2019-03-24T13:49:34.082Z,29.04
2019-03-24T13:52:07.534Z,29.21
2019-03-24T13:54:40.910Z,29.99
2019-03-24T13:57:14.400Z,29.91
2019-03-24T13:59:47.838Z,29.50
2019-03-24T14:02:21.606Z,30.23
2019-03-24T14:04:55.155Z,29.82
2019-03-24T14:07:28.752Z,29.85
2019-03-24T14:10:02.540Z,29.90
2019-03-24T14:12:35.902Z,30.27
2019-03-24T14:15:09.614Z,30.21
2019-03-24T14:17:42.960Z,30.60
2019-03-24T14:20:16.769Z,30.21
2019-03-24T14:22:50.352Z,30.93
2019-03-24T14:25:23.872Z,30.04
2019-03-24T14:27:57.273Z,30.11
2019-03-24T14:30:47.810Z,29.93
2019-03-24T14:33:21.259Z,28.62
2019-03-24T14:35:54.644Z,29.32
2019-03-24T14:38:27.987Z,29.23
2019-03-24T14:41:01.489Z,28.36
2019-03-24T14:43:34.881Z,27.69
2019-03-24T14:46:08.380Z,27.07
2019-03-24T14:48:41.815Z,27.33
2019-03-24T14:51:15.252Z,27.23
2019-03-24T14:53:48.672Z,28.08
2019-03-24T14:56:22.128Z,27.85
2019-03-24T14:58:55.532Z,27.05
2019-03-24T15:01:28.949Z,27.88
2019-03-24T15:04:02.359Z,27.96
2019-03-24T15:06:35.810Z,27.81
2019-03-24T15:09:09.221Z,28.30
2019-03-24T15:11:42.679Z,28.51
2019-03-24T15:14:16.095Z,28.76
2019-03-24T15:16:49.567Z,29.03
2019-03-24T15:19:23.048Z,28.04
2019-03-24T15:21:56.550Z,28.69
2019-03-24T15:24:29.995Z,28.94
2019-03-24T15:27:03.889Z,29.23
2019-03-24T15:29:37.481Z,28.49
2019-03-24T15:32:10.973Z,28.51
2019-03-24T15:34:44.409Z,28.93
2019-03-24T15:37:17.810Z,28.43
2019-03-24T15:39:51.324Z,28.82
2019-03-24T15:42:24.745Z,29.06
2019-03-24T15:44:58.263Z,29.34
2019-03-24T15:47:31.800Z,28.67
2019-03-24T15:50:07.095Z,28.61
2019-03-24T15:52:40.426Z,28.84
2019-03-24T15:55:13.944Z,29.07
2019-03-24T15:57:47.437Z,29.72
2019-03-24T16:00:41.576Z,29.21
2019-03-24T16:03:15.057Z,29.36
2019-03-24T16:05:48.576Z,29.36
2019-03-24T16:08:22.013Z,29.33
2019-03-24T16:10:55.539Z,29.41
2019-03-24T16:13:28.872Z,29.19
2019-03-24T16:16:02.318Z,29.16
2019-03-24T16:18:35.662Z,29.43
2019-03-24T16:21:09.110Z,29.91
2019-03-24T16:23:42.476Z,30.06
2019-03-24T16:26:15.936Z,30.31
2019-03-24T16:28:49.276Z,30.22
2019-03-24T16:31:22.793Z,30.97
2019-03-24T16:33:56.214Z,30.78
2019-03-24T16:36:29.665Z,31.24
2019-03-24T16:39:06.865Z,31.16
2019-03-24T16:41:40.151Z,31.77
2019-03-24T16:44:13.644Z,32.00
2019-03-24T16:46:47.101Z,31.98
2019-03-24T16:49:21.361Z,31.94
2019-03-24T16:51:54.853Z,32.39
2019-03-24T16:54:28.264Z,32.40
2019-03-24T16:57:01.662Z,32.26
2019-03-24T16:59:35.114Z,32.61
2019-03-24T17:02:08.683Z,32.63
2019-03-24T17:04:42.036Z,32.68
2019-03-24T17:07:15.890Z,32.58
2019-03-24T17:09:49.255Z,33.11
2019-03-24T17:12:22.707Z,33.44
2019-03-24T17:14:56.043Z,33.50
2019-03-24T17:17:29.504Z,33.88
2019-03-24T17:20:03.282Z,33.83
2019-03-24T17:22:36.854Z,34.38
2019-03-24T17:25:11.246Z,34.53
2019-03-24T17:27:44.709Z,34.75
2019-03-24T17:30:18.195Z,35.29
2019-03-24T17:32:51.645Z,35.82
2019-03-24T17:35:25.008Z,36.15
2019-03-24T17:37:58.568Z,36.24
2019-03-24T17:40:38.560Z,36.81
2019-03-24T17:43:07.396Z,36.97
2019-03-24T17:45:40.815Z,37.49
2019-03-24T17:48:14.194Z,37.58
2019-03-24T17:50:47.630Z,37.52
2019-03-24T17:53:21.153Z,37.89
2019-03-24T17:55:54.531Z,38.27
2019-03-24T17:58:27.926Z,38.65
2019-03-24T18:01:01.325Z,38.61
2019-03-24T18:03:34.745Z,39.28
2019-03-24T18:06:08.204Z,39.40
2019-03-24T18:08:41.532Z,39.76
2019-03-24T18:11:14.980Z,39.68
2019-03-24T18:13:48.311Z,40.22
2019-03-24T18:16:21.752Z,40.18
2019-03-24T18:18:55.205Z,40.45
2019-03-24T18:21:28.666Z,40.67
2019-03-24T18:24:02.068Z,40.73
2019-03-24T18:26:35.553Z,40.73
2019-03-24T18:29:09.098Z,41.23
2019-03-24T18:31:43.102Z,41.35
2019-03-24T18:34:16.451Z,41.78
2019-03-24T18:36:49.942Z,41.61
2019-03-24T18:39:23.468Z,41.85
2019-03-24T18:41:57.037Z,42.11
2019-03-24T18:44:30.397Z,42.41
2019-03-24T18:47:03.930Z,43.01
2019-03-24T18:49:37.360Z,43.31
2019-03-24T18:52:10.801Z,43.60
2019-03-24T18:54:44.212Z,43.73
2019-03-24T18:57:17.718Z,43.72
2019-03-24T18:59:51.147Z,43.80
2019-03-24T19:02:24.516Z,43.79
2019-03-24T19:04:57.853Z,43.82
2019-03-24T19:07:31.229Z,43.94
2019-03-24T19:10:07.683Z,43.85
2019-03-24T19:12:41.335Z,43.70
2019-03-24T19:15:15.605Z,43.84
2019-03-24T19:17:49.076Z,43.99
2019-03-24T19:20:22.701Z,44.50
2019-03-24T19:22:56.066Z,44.56
2019-03-24T19:25:29.700Z,44.98
2019-03-24T19:28:03.241Z,44.80
2019-03-24T19:30:38.328Z,44.68
2019-03-24T19:33:11.858Z,44.68
2019-03-24T19:35:45.343Z,44.83
2019-03-24T19:38:20.357Z,45.23
2019-03-24T19:40:53.726Z,45.15
2019-03-24T19:43:27.194Z,45.27
2019-03-24T19:46:00.618Z,45.61
2019-03-24T19:48:34.068Z,45.75
2019-03-24T19:51:07.490Z,45.77
2019-03-24T19:53:40.886Z,45.95
2019-03-24T19:56:14.208Z,46.06
2019-03-24T19:58:47.626Z,46.21
2019-03-24T20:01:21.048Z,46.15
2019-03-24T20:03:54.490Z,46.15
2019-03-24T20:06:27.905Z,46.13
2019-03-24T20:09:01.340Z,46.21
2019-03-24T20:11:34.843Z,46.28
2019-03-24T20:14:08.360Z,46.02
2019-03-24T20:16:41.750Z,46.25
2019-03-24T20:19:15.293Z,46.38
2019-03-24T20:21:48.656Z,46.37
2019-03-24T20:24:22.167Z,46.73
2019-03-24T20:26:55.674Z,46.54
2019-03-24T20:29:29.157Z,46.61
2019-03-24T20:32:02.564Z,46.58
2019-03-24T20:34:36.033Z,46.64
2019-03-24T20:37:09.360Z,46.87
2019-03-24T20:39:42.763Z,46.88
2019-03-24T20:42:16.130Z,46.95
2019-03-24T20:44:49.526Z,46.71
2019-03-24T20:47:22.910Z,46.61
2019-03-24T20:49:56.294Z,46.95
2019-03-24T20:52:29.787Z,46.76
2019-03-24T20:55:04.377Z,46.71
2019-03-24T20:57:37.829Z,46.86
2019-03-24T21:00:11.779Z,47.02
2019-03-24T21:02:45.290Z,47.21
2019-03-24T21:05:18.679Z,47.30
2019-03-24T21:07:52.116Z,47.30
2019-03-24T21:10:25.457Z,47.18
2019-03-24T21:12:58.977Z,47.13
2019-03-24T21:15:32.399Z,47.15
2019-03-24T21:18:05.903Z,47.16
2019-03-24T21:20:39.253Z,47.17
2019-03-24T21:23:12.686Z,47.47
2019-03-24T21:25:46.240Z,47.58
2019-03-24T21:28:19.609Z,47.64
2019-03-24T21:30:52.958Z,47.57
2019-03-24T21:33:26.480Z,47.67
2019-03-24T21:36:00.028Z,47.63
2019-03-24T21:38:33.592Z,47.82
2019-03-24T21:41:07.110Z,47.73
2019-03-24T21:43:40.539Z,47.67
2019-03-24T21:46:13.977Z,47.52
2019-03-24T21:48:47.427Z,47.75
2019-03-24T21:51:20.797Z,47.85
2019-03-24T21:53:54.257Z,47.95
2019-03-24T21:56:27.579Z,47.82
2019-03-24T21:59:00.947Z,47.94
2019-03-24T22:01:34.377Z,47.97
2019-03-24T22:04:07.857Z,48.14
2019-03-24T22:06:41.224Z,48.02
2019-03-24T22:09:14.686Z,48.10
2019-03-24T22:11:48.018Z,48.26
2019-03-24T22:14:21.487Z,48.33
2019-03-24T22:16:54.924Z,48.46
2019-03-24T22:19:28.359Z,48.48
2019-03-24T22:22:01.686Z,48.65
2019-03-24T22:24:35.301Z,48.73
2019-03-24T22:27:08.783Z,48.88
2019-03-24T22:29:42.419Z,48.66
2019-03-24T22:32:16.145Z,48.37
2019-03-24T22:34:49.692Z,48.26
2019-03-24T22:37:23.343Z,48.11
2019-03-24T22:39:57.275Z,48.22
2019-03-24T22:42:31.315Z,48.42
2019-03-24T22:45:05.868Z,48.12
2019-03-24T22:47:39.795Z,48.08
2019-03-24T22:50:15.999Z,48.08
2019-03-24T22:52:49.498Z,48.51
2019-03-24T22:55:23.199Z,48.22
2019-03-24T22:57:56.697Z,48.28
2019-03-24T23:00:46.687Z,48.36
2019-03-24T23:03:20.246Z,48.25
2019-03-24T23:05:53.778Z,48.25
2019-03-24T23:08:27.410Z,48.56
2019-03-24T23:11:00.820Z,48.72
2019-03-24T23:13:34.249Z,48.93
2019-03-24T23:16:07.768Z,49.12
2019-03-24T23:18:41.220Z,49.42
2019-03-24T23:21:14.559Z,49.37
2019-03-24T23:23:47.958Z,49.51
2019-03-24T23:26:21.398Z,49.24
2019-03-24T23:28:54.864Z,49.38
2019-03-24T23:31:28.397Z,49.60
2019-03-24T23:34:01.858Z,49.29
2019-03-24T23:36:35.240Z,49.71
2019-03-24T23:39:09.149Z,49.71
2019-03-24T23:41:42.513Z,49.77
2019-03-24T23:44:16.027Z,49.84
2019-03-24T23:46:49.440Z,50.20
2019-03-24T23:49:22.882Z,50.34
2019-03-24T23:51:56.350Z,50.37
2019-03-24T23:54:29.725Z,50.28
2019-03-24T23:57:03.179Z,50.42
2019-03-24T23:59:36.924Z,50.43
